createdAt,value
2018-12-01T00:01:43.827Z,13.85
2018-12-01T00:04:13.507Z,13.50
2018-12-01T00:06:43.776Z,13.60
2018-12-01T00:09:13.502Z,14.55
2018-12-01T00:11:43.336Z,12.10
2018-12-01T00:14:12.981Z,12.85
2018-12-01T00:16:42.722Z,12.85
2018-12-01T00:19:12.426Z,12.70
2018-12-01T00:21:42.052Z,12.80
2018-12-01T00:24:11.819Z,14.07
2018-12-01T00:26:41.471Z,13.22
2018-12-01T00:29:11.436Z,12.63
2018-12-01T00:31:41.134Z,17.10
2018-12-01T00:34:10.810Z,18.30
2018-12-01T00:36:40.416Z,13.05
2018-12-01T00:39:10.144Z,13.48
2018-12-01T00:41:40.093Z,12.93
2018-12-01T00:44:09.803Z,15.65
2018-12-01T00:46:39.642Z,12.75
2018-12-01T00:49:09.398Z,13.60
2018-12-01T00:51:38.987Z,13.68
2018-12-01T00:54:08.813Z,12.60
2018-12-01T00:56:38.703Z,11.95
2018-12-01T00:59:08.369Z,11.75
2018-12-01T01:01:37.994Z,12.63
2018-12-01T01:04:07.901Z,12.10
2018-12-01T01:06:37.517Z,11.63
2018-12-01T01:09:08.242Z,12.25
2018-12-01T01:11:37.929Z,12.80
2018-12-01T01:14:07.706Z,12.60
2018-12-01T01:16:37.508Z,12.75
2018-12-01T01:19:07.170Z,11.43
2018-12-01T01:21:36.866Z,11.10
2018-12-01T01:24:07.050Z,12.43
2018-12-01T01:26:37.659Z,13.22
2018-12-01T01:29:07.978Z,12.85
2018-12-01T01:31:38.074Z,14.03
2018-12-01T01:34:07.818Z,19.45
2018-12-01T01:36:37.597Z,15.30
2018-12-01T01:39:08.661Z,14.55
2018-12-01T01:41:38.719Z,13.55
2018-12-01T01:44:08.246Z,12.82
2018-12-01T01:46:38.662Z,12.85
2018-12-01T01:49:09.131Z,12.70
2018-12-01T01:51:39.461Z,12.80
2018-12-01T01:54:09.538Z,12.75
2018-12-01T01:56:39.708Z,12.45
2018-12-01T01:59:09.844Z,11.40
2018-12-01T02:01:40.118Z,13.43
2018-12-01T02:04:10.412Z,12.40
2018-12-01T02:06:40.152Z,12.98
2018-12-01T02:09:09.914Z,12.00
2018-12-01T02:11:39.666Z,11.43
2018-12-01T02:14:09.370Z,11.88
2018-12-01T02:16:39.075Z,10.90
2018-12-01T02:19:08.906Z,11.93
2018-12-01T02:21:38.705Z,11.83
2018-12-01T02:24:10.156Z,12.15
2018-12-01T02:26:39.967Z,11.05
2018-12-01T02:29:09.710Z,12.40
2018-12-01T02:31:39.477Z,12.15
2018-12-01T02:34:09.215Z,11.70
2018-12-01T02:36:39.045Z,12.90
2018-12-01T02:39:10.759Z,11.33
2018-12-01T02:41:40.433Z,11.25
2018-12-01T02:44:21.159Z,11.75
2018-12-01T02:47:02.628Z,10.30
2018-12-01T02:49:32.364Z,11.30
2018-12-01T02:52:02.114Z,12.18
2018-12-01T02:54:31.858Z,10.58
2018-12-01T02:57:01.578Z,11.70
2018-12-01T02:59:31.365Z,11.30
2018-12-01T03:02:01.522Z,11.28
2018-12-01T03:04:31.449Z,11.12
2018-12-01T03:07:01.568Z,11.05
2018-12-01T03:09:31.986Z,11.60
2018-12-01T03:12:02.498Z,10.45
2018-12-01T03:14:33.485Z,12.93
2018-12-01T03:17:03.659Z,12.75
2018-12-01T03:19:33.863Z,12.35
2018-12-01T03:22:04.245Z,12.90
2018-12-01T03:24:34.366Z,12.82
2018-12-01T03:27:04.429Z,11.95
2018-12-01T03:29:34.272Z,12.43
2018-12-01T03:32:04.053Z,10.50
2018-12-01T03:34:34.175Z,13.22
2018-12-01T03:37:04.577Z,13.13
2018-12-01T03:39:35.089Z,11.73
2018-12-01T03:42:07.465Z,12.18
2018-12-01T03:44:37.772Z,10.70
2018-12-01T03:47:08.019Z,12.65
2018-12-01T03:49:38.555Z,11.00
2018-12-01T03:52:08.657Z,12.00
2018-12-01T03:54:39.164Z,11.20
2018-12-01T03:57:08.940Z,11.10
2018-12-01T03:59:38.686Z,10.20
2018-12-01T04:02:08.765Z,9.15
2018-12-01T04:04:39.234Z,8.78
2018-12-01T04:07:09.605Z,11.20
2018-12-01T04:09:39.699Z,11.65
2018-12-01T04:12:10.323Z,11.45
2018-12-01T04:14:40.669Z,10.70
2018-12-01T04:17:11.212Z,12.43
2018-12-01T04:19:42.153Z,11.90
2018-12-01T04:22:12.473Z,17.30
2018-12-01T04:24:42.536Z,21.80
2018-12-01T04:27:12.729Z,54.13
2018-12-01T04:29:42.878Z,64.45
2018-12-01T04:32:13.982Z,27.65
2018-12-01T04:34:44.304Z,15.35
2018-12-01T04:37:14.478Z,15.78
2018-12-01T04:39:44.734Z,14.05
2018-12-01T04:42:14.814Z,14.87
2018-12-01T04:44:45.279Z,16.25
2018-12-01T04:47:15.153Z,14.07
2018-12-01T04:49:45.348Z,16.25
2018-12-01T04:52:15.378Z,16.95
2018-12-01T04:54:45.760Z,19.92
2018-12-01T04:57:15.994Z,18.05
2018-12-01T04:59:47.087Z,17.15
2018-12-01T05:02:17.450Z,21.05
2018-12-01T05:04:47.587Z,18.30
2018-12-01T05:07:17.772Z,22.20
2018-12-01T05:09:47.665Z,14.38
2018-12-01T05:12:17.895Z,20.62
2018-12-01T05:14:47.987Z,20.40
2018-12-01T05:17:17.815Z,21.20
2018-12-01T05:19:47.500Z,18.30
2018-12-01T05:22:17.139Z,18.37
2018-12-01T05:24:47.589Z,16.57
2018-12-01T05:27:17.783Z,18.45
2018-12-01T05:29:47.522Z,20.05
2018-12-01T05:32:17.260Z,18.37
2018-12-01T05:34:46.956Z,20.45
2018-12-01T05:37:16.651Z,17.57
2018-12-01T05:39:46.372Z,15.70
2018-12-01T05:42:16.174Z,19.07
2018-12-01T05:44:45.916Z,19.30
2018-12-01T05:47:15.668Z,19.95
2018-12-01T05:49:45.288Z,18.35
2018-12-01T05:52:15.119Z,17.27
2018-12-01T05:54:44.890Z,16.25
2018-12-01T05:57:14.709Z,15.68
2018-12-01T05:59:44.372Z,14.00
2018-12-01T06:02:14.243Z,15.70
2018-12-01T06:04:43.929Z,13.95
2018-12-01T06:07:14.365Z,14.73
2018-12-01T06:09:44.944Z,15.15
2018-12-01T06:12:15.231Z,17.05
2018-12-01T06:14:45.302Z,15.40
2018-12-01T06:17:15.148Z,15.50
2018-12-01T06:19:44.942Z,14.38
2018-12-01T06:22:15.076Z,16.82
2018-12-01T06:24:45.403Z,19.65
2018-12-01T06:27:15.348Z,18.75
2018-12-01T06:29:45.462Z,18.23
2018-12-01T06:32:16.119Z,18.10
2018-12-01T06:34:46.003Z,18.82
2018-12-01T06:37:16.746Z,21.42
2018-12-01T06:39:46.610Z,18.57
2018-12-01T06:42:16.487Z,18.40
2018-12-01T06:44:46.262Z,19.95
2018-12-01T06:47:16.071Z,17.37
2018-12-01T06:49:45.905Z,18.65
2018-12-01T06:52:16.140Z,18.90
2018-12-01T06:54:46.590Z,19.98
2018-12-01T06:57:17.187Z,23.60
2018-12-01T06:59:47.279Z,20.90
2018-12-01T07:02:17.702Z,21.07
2018-12-01T07:04:47.445Z,14.70
2018-12-01T07:07:17.814Z,13.10
2018-12-01T07:09:47.596Z,10.90
2018-12-01T07:12:17.239Z,9.83
2018-12-01T07:14:47.137Z,11.00
2018-12-01T07:17:17.033Z,11.18
2018-12-01T07:19:46.868Z,11.63
2018-12-01T07:22:16.691Z,10.63
2018-12-01T07:24:46.539Z,10.40
2018-12-01T07:27:16.282Z,9.88
2018-12-01T07:29:46.400Z,8.98
2018-12-01T07:32:16.528Z,10.00
2018-12-01T07:34:46.883Z,10.82
2018-12-01T07:37:17.117Z,12.63
2018-12-01T07:39:49.779Z,12.68
2018-12-01T07:42:20.250Z,10.98
2018-12-01T07:44:49.972Z,10.98
2018-12-01T07:48:22.845Z,9.90
2018-12-01T07:50:52.572Z,8.25
2018-12-01T07:53:22.717Z,10.38
2018-12-01T07:55:52.457Z,11.35
2018-12-01T07:58:22.231Z,12.75
2018-12-01T08:00:52.017Z,8.58
2018-12-01T08:03:22.220Z,11.97
2018-12-01T08:05:52.257Z,11.00
2018-12-01T08:08:22.013Z,12.95
2018-12-01T08:10:52.141Z,12.20
2018-12-01T08:13:21.946Z,10.38
2018-12-01T08:15:51.729Z,9.40
2018-12-01T08:18:21.493Z,11.68
2018-12-01T08:20:51.357Z,11.50
2018-12-01T08:23:21.298Z,11.85
2018-12-01T08:25:51.117Z,11.38
2018-12-01T08:28:23.194Z,11.97
2018-12-01T08:30:53.998Z,10.58
2018-12-01T08:33:23.870Z,10.30
2018-12-01T08:35:53.587Z,10.72
2018-12-01T08:38:23.401Z,11.85
2018-12-01T08:40:53.170Z,12.05
2018-12-01T08:43:23.101Z,10.70
2018-12-01T08:45:52.940Z,10.53
2018-12-01T08:48:22.885Z,10.80
2018-12-01T08:50:56.700Z,11.30
2018-12-01T08:53:26.835Z,10.93
2018-12-01T08:55:56.689Z,13.18
2018-12-01T08:58:26.512Z,12.03
2018-12-01T09:00:56.499Z,12.90
2018-12-01T09:03:26.227Z,12.80
2018-12-01T09:05:56.674Z,14.10
2018-12-01T09:08:26.510Z,10.35
2018-12-01T09:10:56.202Z,10.05
2018-12-01T09:13:26.908Z,12.55
2018-12-01T09:15:57.707Z,9.58
2018-12-01T09:18:27.494Z,9.30
2018-12-01T09:20:57.238Z,11.88
2018-12-01T09:23:27.483Z,14.35
2018-12-01T09:25:57.293Z,11.73
2018-12-01T09:28:26.879Z,12.10
2018-12-01T09:30:56.720Z,12.68
2018-12-01T09:33:26.458Z,13.10
2018-12-01T09:35:56.244Z,13.53
2018-12-01T09:38:26.027Z,12.90
2018-12-01T09:40:55.863Z,12.43
2018-12-01T09:43:25.692Z,12.10
2018-12-01T09:45:55.497Z,13.00
2018-12-01T09:48:26.049Z,12.98
2018-12-01T09:50:58.197Z,12.25
2018-12-01T09:53:28.542Z,14.87
2018-12-01T09:55:58.572Z,8.63
2018-12-01T10:03:19.067Z,5.70
2018-12-01T10:05:48.946Z,5.50
2018-12-01T10:08:18.692Z,6.83
2018-12-01T10:10:48.507Z,6.78
2018-12-01T10:13:18.395Z,8.00
2018-12-01T10:15:48.581Z,9.10
2018-12-01T10:18:19.856Z,11.55
2018-12-01T10:20:51.512Z,10.20
2018-12-01T10:23:30.166Z,12.68
2018-12-01T10:26:02.634Z,12.75
2018-12-01T10:28:33.909Z,12.88
2018-12-01T10:31:06.559Z,12.03
2018-12-01T10:33:37.995Z,12.00
2018-12-01T10:36:09.854Z,13.15
2018-12-01T10:38:41.189Z,12.37
2018-12-01T10:41:12.680Z,12.10
2018-12-01T10:43:44.794Z,10.80
2018-12-01T10:46:17.511Z,11.70
2018-12-01T10:48:49.023Z,12.28
2018-12-01T10:51:20.615Z,11.22
2018-12-01T11:31:58.640Z,10.75
2018-12-01T11:34:28.342Z,10.88
2018-12-01T11:36:59.652Z,10.50
2018-12-01T11:39:29.330Z,11.08
2018-12-01T11:41:59.071Z,8.80
2018-12-01T11:44:29.014Z,9.88
2018-12-01T11:46:58.834Z,8.50
2018-12-01T11:49:28.885Z,8.45
2018-12-01T11:51:58.583Z,9.15
2018-12-01T11:54:28.417Z,7.72
2018-12-01T11:56:58.498Z,7.20
2018-12-01T11:59:28.338Z,9.00
2018-12-01T12:02:00.491Z,7.03
2018-12-01T12:04:28.355Z,6.33
2018-12-01T12:06:58.235Z,6.58
2018-12-01T12:09:27.930Z,7.08
2018-12-01T12:11:57.611Z,6.40
2018-12-01T12:14:27.433Z,7.08
2018-12-01T12:16:57.268Z,6.70
2018-12-01T12:19:27.247Z,8.25
2018-12-01T12:21:57.250Z,7.30
2018-12-01T12:24:27.214Z,8.23
2018-12-01T12:26:56.986Z,6.65
2018-12-01T12:29:26.809Z,7.30
2018-12-01T12:32:00.667Z,6.50
2018-12-01T12:34:30.494Z,7.17
2018-12-01T12:37:00.267Z,6.65
2018-12-01T12:39:29.937Z,7.10
2018-12-01T12:41:59.619Z,6.37
2018-12-01T12:44:29.470Z,6.70
2018-12-01T12:46:59.338Z,6.75
2018-12-01T12:49:29.268Z,6.28
2018-12-01T12:51:59.091Z,5.78
2018-12-01T12:54:29.237Z,7.40
2018-12-01T12:56:59.258Z,6.40
2018-12-01T12:59:29.037Z,6.62
2018-12-01T13:01:58.756Z,6.22
2018-12-01T13:04:28.522Z,7.53
2018-12-01T13:06:58.220Z,6.87
2018-12-01T13:09:28.011Z,6.67
2018-12-01T13:11:57.801Z,6.17
2018-12-01T13:14:27.473Z,6.00
2018-12-01T13:16:57.306Z,7.05
2018-12-01T13:19:27.006Z,7.40
2018-12-01T13:23:26.732Z,7.08
2018-12-01T13:25:56.375Z,7.90
2018-12-01T13:28:26.569Z,7.90
2018-12-01T13:30:59.423Z,8.28
2018-12-01T13:33:30.470Z,7.33
2018-12-01T13:36:00.238Z,6.97
2018-12-01T13:38:30.078Z,9.80
2018-12-01T13:41:00.310Z,17.17
2018-12-01T13:43:30.125Z,9.68
2018-12-01T13:45:59.883Z,8.83
2018-12-01T13:48:29.740Z,10.25
2018-12-01T13:50:59.609Z,8.45
2018-12-01T13:53:30.208Z,7.75
2018-12-01T13:55:59.826Z,6.85
2018-12-01T13:58:29.527Z,6.92
2018-12-01T14:00:59.179Z,8.13
2018-12-01T14:03:28.795Z,12.65
2018-12-01T14:05:58.614Z,9.95
2018-12-01T14:08:28.334Z,7.92
2018-12-01T14:10:58.087Z,11.65
2018-12-01T14:13:33.708Z,10.85
2018-12-01T14:16:03.733Z,16.12
2018-12-01T14:18:33.477Z,27.55
2018-12-01T14:21:03.251Z,14.30
2018-12-01T14:23:33.278Z,14.98
2018-12-01T14:26:03.106Z,26.80
2018-12-01T14:28:32.906Z,25.40
2018-12-01T14:31:02.659Z,26.90
2018-12-01T14:33:32.949Z,21.40
2018-12-01T14:36:03.006Z,27.35
2018-12-01T14:38:32.751Z,29.27
2018-12-01T14:41:02.564Z,27.62
2018-12-01T14:43:32.290Z,31.45
2018-12-01T14:46:02.011Z,36.58
2018-12-01T14:48:31.751Z,35.95
2018-12-01T14:51:01.660Z,34.40
2018-12-01T14:53:31.525Z,51.90
2018-12-01T14:56:01.290Z,38.85
2018-12-01T14:58:31.188Z,38.70
2018-12-01T15:01:00.849Z,35.30
2018-12-01T15:03:30.925Z,34.27
2018-12-01T15:06:00.594Z,29.05
2018-12-01T15:08:30.383Z,32.90
2018-12-01T15:11:00.603Z,33.28
2018-12-01T15:13:30.328Z,34.92
2018-12-01T15:16:00.003Z,37.80
2018-12-01T15:18:29.674Z,42.83
2018-12-01T15:20:59.480Z,50.15
2018-12-01T15:23:30.087Z,53.52
2018-12-01T15:26:00.735Z,47.45
2018-12-01T15:28:31.056Z,41.25
2018-12-01T15:31:00.889Z,36.17
2018-12-01T15:33:30.474Z,38.60
2018-12-01T15:36:00.156Z,41.45
2018-12-01T15:38:29.939Z,48.48
2018-12-01T15:40:59.762Z,46.25
2018-12-01T15:43:29.502Z,52.13
2018-12-01T15:45:59.446Z,31.90
2018-12-01T15:48:30.162Z,27.25
2018-12-01T15:51:00.086Z,31.15
2018-12-01T15:53:29.956Z,29.05
2018-12-01T15:55:59.745Z,28.45
2018-12-01T15:58:30.286Z,34.05
2018-12-01T16:01:00.070Z,37.25
2018-12-01T16:03:29.954Z,41.08
2018-12-01T16:05:59.906Z,35.90
2018-12-01T16:08:29.940Z,34.48
2018-12-01T16:10:59.606Z,31.80
2018-12-01T16:13:29.734Z,32.28
2018-12-01T16:16:10.463Z,32.48
2018-12-01T16:18:40.457Z,32.85
2018-12-01T16:21:10.155Z,32.25
2018-12-01T16:23:40.042Z,36.75
2018-12-01T16:26:09.819Z,34.15
2018-12-01T16:28:39.809Z,35.15
2018-12-01T16:31:09.857Z,34.10
2018-12-01T16:33:39.673Z,34.53
2018-12-01T16:36:09.622Z,29.55
2018-12-01T16:38:39.525Z,28.35
2018-12-01T16:41:28.894Z,32.23
2018-12-01T16:43:59.563Z,34.80
2018-12-01T16:46:33.107Z,38.25
2018-12-01T16:49:03.113Z,34.25
2018-12-01T16:51:32.894Z,29.25
2018-12-01T16:54:03.122Z,34.58
2018-12-01T16:56:34.044Z,31.57
2018-12-01T16:59:04.019Z,31.33
2018-12-01T17:01:34.849Z,49.65
2018-12-01T17:04:04.761Z,59.77
2018-12-01T17:06:34.708Z,53.68
2018-12-01T17:09:05.530Z,45.73
2018-12-01T17:11:35.601Z,46.55
2018-12-01T17:14:05.735Z,56.25
2018-12-01T17:16:36.077Z,49.03
2018-12-01T17:19:06.147Z,41.73
2018-12-01T17:21:36.183Z,43.68
2018-12-01T17:24:06.847Z,48.25
2018-12-01T17:26:36.992Z,52.53
2018-12-01T17:29:07.513Z,43.80
2018-12-01T17:31:37.426Z,41.92
2018-12-01T17:34:08.815Z,35.65
2018-12-01T17:36:38.714Z,36.85
2018-12-01T17:39:10.567Z,32.88
2018-12-01T17:41:40.378Z,34.92
2018-12-01T17:44:11.486Z,43.02
2018-12-01T17:46:41.569Z,37.30
2018-12-01T17:49:11.526Z,39.03
2018-12-01T17:51:41.567Z,46.18
2018-12-01T17:54:13.940Z,43.35
2018-12-01T17:56:46.285Z,40.83
2018-12-01T17:59:16.144Z,39.45
2018-12-01T18:01:46.285Z,46.80
2018-12-01T18:04:16.152Z,44.45
2018-12-01T18:06:45.934Z,42.80
2018-12-01T18:09:29.990Z,47.25
2018-12-01T18:12:00.239Z,44.63
2018-12-01T18:14:29.959Z,42.60
2018-12-01T18:16:59.764Z,40.73
2018-12-01T18:19:29.944Z,46.75
2018-12-01T18:22:00.228Z,50.85
2018-12-01T18:24:31.158Z,50.03
2018-12-01T18:27:00.950Z,48.95
2018-12-01T18:29:31.003Z,47.88
2018-12-01T18:32:01.755Z,42.27
2018-12-01T18:34:31.545Z,52.08
2018-12-01T18:37:01.634Z,105.40
2018-12-01T18:39:31.263Z,78.55
2018-12-01T18:42:00.925Z,129.85
2018-12-01T18:44:30.579Z,59.33
2018-12-01T18:47:00.304Z,51.90
2018-12-01T18:49:29.904Z,52.03
2018-12-01T18:51:59.925Z,57.65
2018-12-01T18:54:30.908Z,63.10
2018-12-01T18:57:01.947Z,48.70
2018-12-01T18:59:30.485Z,51.42
2018-12-01T19:02:00.161Z,45.92
2018-12-01T19:04:30.175Z,41.25
2018-12-01T19:06:59.932Z,45.35
2018-12-01T19:09:29.787Z,47.75
2018-12-01T19:12:06.153Z,49.90
2018-12-01T19:14:35.987Z,47.60
2018-12-01T19:17:06.202Z,48.30
2018-12-01T19:19:36.162Z,44.48
2018-12-01T19:22:06.381Z,37.08
2018-12-01T19:24:36.198Z,38.45
2018-12-01T19:27:06.406Z,41.28
2018-12-01T19:29:36.290Z,38.23
2018-12-01T19:32:06.387Z,38.67
2018-12-01T19:34:36.094Z,38.70
2018-12-01T19:37:05.919Z,34.85
2018-12-01T19:39:36.575Z,33.00
2018-12-01T19:42:06.396Z,34.18
2018-12-01T19:44:36.089Z,34.67
2018-12-01T19:47:06.009Z,32.78
2018-12-01T19:49:35.719Z,35.20
2018-12-01T19:52:05.747Z,38.48
2018-12-01T19:54:35.522Z,40.75
2018-12-01T19:57:05.379Z,45.48
2018-12-01T19:59:36.009Z,38.17
2018-12-01T20:02:06.596Z,28.25
2018-12-01T20:04:36.641Z,29.10
2018-12-01T20:07:07.271Z,31.37
2018-12-01T20:09:38.096Z,35.75
2018-12-01T20:12:09.342Z,32.08
2018-12-01T20:14:39.138Z,40.70
2018-12-01T20:17:10.172Z,36.70
2018-12-01T20:19:40.007Z,37.20
2018-12-01T20:24:41.656Z,41.95
2018-12-01T20:27:11.579Z,41.85
2018-12-01T20:29:41.438Z,37.60
2018-12-01T20:32:13.229Z,37.50
2018-12-01T20:34:43.094Z,32.28
2018-12-01T20:37:17.793Z,35.52
2018-12-01T20:39:47.660Z,29.48
2018-12-01T20:42:17.373Z,27.48
2018-12-01T20:44:47.371Z,25.45
2018-12-01T20:47:17.990Z,28.07
2018-12-01T20:49:47.684Z,29.20
2018-12-01T20:52:17.500Z,29.45
2018-12-01T20:54:47.937Z,27.10
2018-12-01T20:57:20.559Z,29.27
2018-12-01T20:59:50.272Z,26.57
2018-12-01T21:02:20.232Z,28.65
2018-12-01T21:04:52.231Z,33.33
2018-12-01T21:07:22.080Z,29.23
2018-12-01T21:09:51.901Z,30.30
2018-12-01T21:12:21.795Z,29.63
2018-12-01T21:14:51.764Z,27.65
2018-12-01T21:17:22.010Z,27.77
2018-12-01T21:19:55.564Z,27.10
2018-12-01T21:22:25.883Z,26.93
2018-12-01T21:24:57.014Z,29.05
2018-12-01T21:27:27.860Z,26.95
2018-12-01T21:29:57.925Z,27.70
2018-12-01T21:32:27.927Z,24.50
2018-12-01T21:34:57.833Z,27.13
2018-12-01T21:37:27.833Z,26.93
2018-12-01T21:39:57.532Z,27.40
2018-12-01T21:42:29.808Z,27.35
2018-12-01T21:44:59.805Z,26.82
2018-12-01T21:47:29.859Z,26.12
2018-12-01T21:50:07.783Z,24.52
2018-12-01T21:52:37.719Z,18.70
2018-12-01T21:55:09.600Z,18.75
2018-12-01T21:57:39.665Z,18.37
2018-12-01T22:00:31.916Z,19.90
2018-12-01T22:03:12.389Z,21.42
2018-12-01T22:05:44.746Z,32.80
2018-12-01T22:08:16.154Z,34.65
2018-12-01T22:10:49.135Z,33.10
2018-12-01T22:13:20.251Z,28.80
2018-12-01T22:15:50.282Z,28.00
2018-12-01T22:18:20.346Z,22.60
2018-12-01T22:20:50.130Z,19.82
2018-12-01T22:23:20.565Z,24.55
2018-12-01T22:25:52.651Z,31.75
2018-12-01T22:28:23.106Z,26.05
2018-12-01T22:30:57.203Z,24.50
2018-12-01T22:33:28.482Z,27.40
2018-12-01T22:36:01.556Z,28.30
2018-12-01T22:38:33.284Z,30.68
2018-12-01T22:41:04.081Z,30.27
2018-12-01T22:43:34.291Z,26.17
2018-12-01T22:46:04.463Z,29.45
2018-12-01T22:48:34.318Z,23.60
2018-12-01T22:51:04.263Z,24.18
2018-12-01T22:53:34.361Z,24.43
2018-12-01T22:56:04.452Z,28.10
2018-12-01T22:58:34.721Z,39.80
2018-12-01T23:01:04.959Z,54.65
2018-12-01T23:03:38.017Z,56.83
2018-12-01T23:06:08.139Z,45.12
2018-12-01T23:08:38.080Z,42.25
2018-12-01T23:11:16.488Z,34.08
2018-12-01T23:13:48.355Z,25.57
2018-12-01T23:16:18.131Z,26.48
2018-12-01T23:18:48.131Z,28.32
2018-12-01T23:21:20.577Z,32.15
2018-12-01T23:23:48.132Z,31.45
2018-12-01T23:26:18.041Z,34.40
2018-12-01T23:28:48.379Z,31.55
2018-12-01T23:31:18.122Z,24.37
2018-12-01T23:33:47.881Z,24.15
2018-12-01T23:36:17.758Z,31.52
2018-12-01T23:38:48.321Z,29.30
2018-12-01T23:41:18.106Z,22.45
2018-12-01T23:43:48.123Z,25.80
2018-12-01T23:46:17.928Z,27.13
2018-12-01T23:48:47.880Z,30.88
2018-12-01T23:51:17.657Z,27.20
2018-12-01T23:53:47.406Z,26.10
2018-12-01T23:56:17.472Z,22.48
2018-12-01T23:58:47.367Z,22.10
